sensor_id;sensor_type;location;lat;lon;timestamp;pressure;altitude;pressure_sealevel;temperature
19040;BMP180;9652;49.014;12.052;2023-07-22T00:00:31;97780.00;;;20.10
19040;BMP180;9652;49.014;12.052;2023-07-22T00:02:58;97774.00;;;20.00
19040;BMP180;9652;49.014;12.052;2023-07-22T00:05:25;97771.00;;;20.00
19040;BMP180;9652;49.014;12.052;2023-07-22T00:07:53;97779.00;;;20.00
19040;BMP180;9652;49.014;12.052;2023-07-22T00:10:20;97778.00;;;19.70
19040;BMP180;9652;49.014;12.052;2023-07-22T00:12:47;97782.00;;;19.80
19040;BMP180;9652;49.014;12.052;2023-07-22T00:15:15;97776.00;;;19.90
19040;BMP180;9652;49.014;12.052;2023-07-22T00:17:42;97784.00;;;19.90
19040;BMP180;9652;49.014;12.052;2023-07-22T00:20:10;97785.00;;;19.50
19040;BMP180;9652;49.014;12.052;2023-07-22T00:22:38;97777.00;;;19.80
19040;BMP180;9652;49.014;12.052;2023-07-22T00:25:09;97771.00;;;19.80
19040;BMP180;9652;49.014;12.052;2023-07-22T00:27:37;97784.00;;;19.80
19040;BMP180;9652;49.014;12.052;2023-07-22T00:30:06;97776.00;;;19.70
19040;BMP180;9652;49.014;12.052;2023-07-22T00:32:33;97779.00;;;19.70
19040;BMP180;9652;49.014;12.052;2023-07-22T00:35:03;97768.00;;;19.70
19040;BMP180;9652;49.014;12.052;2023-07-22T00:37:31;97772.00;;;19.70
19040;BMP180;9652;49.014;12.052;2023-07-22T00:39:58;97772.00;;;19.60
19040;BMP180;9652;49.014;12.052;2023-07-22T00:42:26;97772.00;;;19.60
19040;BMP180;9652;49.014;12.052;2023-07-22T00:44:53;97765.00;;;19.60
19040;BMP180;9652;49.014;12.052;2023-07-22T00:47:21;97767.00;;;19.50
19040;BMP180;9652;49.014;12.052;2023-07-22T00:49:50;97767.00;;;19.50
19040;BMP180;9652;49.014;12.052;2023-07-22T00:52:18;97779.00;;;19.50
19040;BMP180;9652;49.014;12.052;2023-07-22T00:54:45;97751.00;;;19.40
19040;BMP180;9652;49.014;12.052;2023-07-22T00:57:12;97747.00;;;19.40
19040;BMP180;9652;49.014;12.052;2023-07-22T00:59:41;97747.00;;;19.40
19040;BMP180;9652;49.014;12.052;2023-07-22T01:02:08;97734.00;;;19.30
19040;BMP180;9652;49.014;12.052;2023-07-22T01:04:36;97726.00;;;19.30
19040;BMP180;9652;49.014;12.052;2023-07-22T01:07:05;97742.00;;;19.30
19040;BMP180;9652;49.014;12.052;2023-07-22T01:09:36;97733.00;;;19.20
19040;BMP180;9652;49.014;12.052;2023-07-22T01:12:05;97738.00;;;19.20
19040;BMP180;9652;49.014;12.052;2023-07-22T01:14:33;97740.00;;;19.20
19040;BMP180;9652;49.014;12.052;2023-07-22T01:17:03;97722.00;;;19.20
19040;BMP180;9652;49.014;12.052;2023-07-22T01:19:31;97742.00;;;19.20
19040;BMP180;9652;49.014;12.052;2023-07-22T01:22:01;97745.00;;;19.10
19040;BMP180;9652;49.014;12.052;2023-07-22T01:24:30;97740.00;;;19.10
19040;BMP180;9652;49.014;12.052;2023-07-22T01:26:58;97745.00;;;19.10
19040;BMP180;9652;49.014;12.052;2023-07-22T01:29:25;97742.00;;;19.00
19040;BMP180;9652;49.014;12.052;2023-07-22T01:31:54;97749.00;;;19.00
19040;BMP180;9652;49.014;12.052;2023-07-22T01:34:22;97749.00;;;19.00
19040;BMP180;9652;49.014;12.052;2023-07-22T01:36:50;97728.00;;;18.90
19040;BMP180;9652;49.014;12.052;2023-07-22T01:39:18;97742.00;;;18.90
19040;BMP180;9652;49.014;12.052;2023-07-22T01:41:46;97714.00;;;18.90
19040;BMP180;9652;49.014;12.052;2023-07-22T01:44:14;97748.00;;;18.80
19040;BMP180;9652;49.014;12.052;2023-07-22T01:46:41;97755.00;;;18.80
19040;BMP180;9652;49.014;12.052;2023-07-22T01:49:11;97752.00;;;18.80
19040;BMP180;9652;49.014;12.052;2023-07-22T01:51:39;97744.00;;;18.80
19040;BMP180;9652;49.014;12.052;2023-07-22T01:54:07;97752.00;;;18.80
19040;BMP180;9652;49.014;12.052;2023-07-22T01:56:35;97745.00;;;18.80
19040;BMP180;9652;49.014;12.052;2023-07-22T01:59:04;97735.00;;;18.80
19040;BMP180;9652;49.014;12.052;2023-07-22T02:01:31;97739.00;;;18.80
19040;BMP180;9652;49.014;12.052;2023-07-22T02:03:59;97756.00;;;18.70
19040;BMP180;9652;49.014;12.052;2023-07-22T02:06:26;97762.00;;;18.70
19040;BMP180;9652;49.014;12.052;2023-07-22T02:08:54;97752.00;;;18.70
19040;BMP180;9652;49.014;12.052;2023-07-22T02:11:22;97754.00;;;18.60
19040;BMP180;9652;49.014;12.052;2023-07-22T02:13:49;97753.00;;;18.60
19040;BMP180;9652;49.014;12.052;2023-07-22T02:16:18;97742.00;;;18.60
19040;BMP180;9652;49.014;12.052;2023-07-22T02:18:45;97752.00;;;18.50
19040;BMP180;9652;49.014;12.052;2023-07-22T02:21:13;97741.00;;;18.50
19040;BMP180;9652;49.014;12.052;2023-07-22T02:23:40;97766.00;;;18.50
19040;BMP180;9652;49.014;12.052;2023-07-22T02:26:07;97755.00;;;18.50
19040;BMP180;9652;49.014;12.052;2023-07-22T02:28:34;97755.00;;;18.40
19040;BMP180;9652;49.014;12.052;2023-07-22T02:31:03;97755.00;;;18.50
19040;BMP180;9652;49.014;12.052;2023-07-22T02:33:34;97761.00;;;18.40
19040;BMP180;9652;49.014;12.052;2023-07-22T02:36:01;97770.00;;;18.40
19040;BMP180;9652;49.014;12.052;2023-07-22T02:38:28;97749.00;;;18.40
19040;BMP180;9652;49.014;12.052;2023-07-22T02:41:01;97755.00;;;18.40
19040;BMP180;9652;49.014;12.052;2023-07-22T02:43:29;97765.00;;;18.40
19040;BMP180;9652;49.014;12.052;2023-07-22T02:45:56;97762.00;;;18.30
19040;BMP180;9652;49.014;12.052;2023-07-22T02:48:23;97766.00;;;18.30
19040;BMP180;9652;49.014;12.052;2023-07-22T02:50:51;97752.00;;;18.30
19040;BMP180;9652;49.014;12.052;2023-07-22T02:53:18;97756.00;;;18.30
19040;BMP180;9652;49.014;12.052;2023-07-22T02:55:46;97759.00;;;18.30
19040;BMP180;9652;49.014;12.052;2023-07-22T02:58:13;97760.00;;;18.30
19040;BMP180;9652;49.014;12.052;2023-07-22T03:00:40;97757.00;;;18.30
19040;BMP180;9652;49.014;12.052;2023-07-22T03:03:07;97761.00;;;18.20
19040;BMP180;9652;49.014;12.052;2023-07-22T03:05:35;97766.00;;;18.20
19040;BMP180;9652;49.014;12.052;2023-07-22T03:08:04;97772.00;;;18.20
19040;BMP180;9652;49.014;12.052;2023-07-22T03:10:33;97740.00;;;18.20
19040;BMP180;9652;49.014;12.052;2023-07-22T03:13:00;97765.00;;;18.20
19040;BMP180;9652;49.014;12.052;2023-07-22T03:15:29;97767.00;;;17.70
19040;BMP180;9652;49.014;12.052;2023-07-22T03:17:56;97762.00;;;18.10
19040;BMP180;9652;49.014;12.052;2023-07-22T03:20:25;97755.00;;;18.10
19040;BMP180;9652;49.014;12.052;2023-07-22T03:22:52;97777.00;;;18.00
19040;BMP180;9652;49.014;12.052;2023-07-22T03:25:21;97766.00;;;18.00
19040;BMP180;9652;49.014;12.052;2023-07-22T03:27:48;97775.00;;;17.90
19040;BMP180;9652;49.014;12.052;2023-07-22T03:30:17;97782.00;;;17.90
19040;BMP180;9652;49.014;12.052;2023-07-22T03:32:47;97788.00;;;17.90
19040;BMP180;9652;49.014;12.052;2023-07-22T03:35:16;97786.00;;;17.90
19040;BMP180;9652;49.014;12.052;2023-07-22T03:37:43;97785.00;;;17.80
19040;BMP180;9652;49.014;12.052;2023-07-22T03:40:11;97775.00;;;17.80
19040;BMP180;9652;49.014;12.052;2023-07-22T03:42:46;97782.00;;;17.80
19040;BMP180;9652;49.014;12.052;2023-07-22T03:45:13;97781.00;;;17.80
19040;BMP180;9652;49.014;12.052;2023-07-22T03:47:40;97787.00;;;17.80
19040;BMP180;9652;49.014;12.052;2023-07-22T03:50:08;97788.00;;;17.80
19040;BMP180;9652;49.014;12.052;2023-07-22T03:52:36;97795.00;;;17.80
19040;BMP180;9652;49.014;12.052;2023-07-22T03:55:04;97784.00;;;17.80
19040;BMP180;9652;49.014;12.052;2023-07-22T03:57:32;97801.00;;;17.80
19040;BMP180;9652;49.014;12.052;2023-07-22T04:00:01;97808.00;;;17.80
19040;BMP180;9652;49.014;12.052;2023-07-22T04:02:38;97807.00;;;17.80
19040;BMP180;9652;49.014;12.052;2023-07-22T04:05:06;97818.00;;;17.80
19040;BMP180;9652;49.014;12.052;2023-07-22T04:07:34;97816.00;;;17.90
19040;BMP180;9652;49.014;12.052;2023-07-22T04:10:01;97822.00;;;17.90
19040;BMP180;9652;49.014;12.052;2023-07-22T04:12:29;97816.00;;;17.90
19040;BMP180;9652;49.014;12.052;2023-07-22T04:14:56;97806.00;;;17.90
19040;BMP180;9652;49.014;12.052;2023-07-22T04:17:25;97814.00;;;17.90
19040;BMP180;9652;49.014;12.052;2023-07-22T04:19:52;97815.00;;;17.90
19040;BMP180;9652;49.014;12.052;2023-07-22T04:22:20;97817.00;;;17.90
19040;BMP180;9652;49.014;12.052;2023-07-22T04:24:47;97816.00;;;18.00
19040;BMP180;9652;49.014;12.052;2023-07-22T04:27:15;97817.00;;;18.00
19040;BMP180;9652;49.014;12.052;2023-07-22T04:29:42;97812.00;;;18.00
19040;BMP180;9652;49.014;12.052;2023-07-22T04:32:09;97824.00;;;18.10
19040;BMP180;9652;49.014;12.052;2023-07-22T04:34:38;97823.00;;;18.10
19040;BMP180;9652;49.014;12.052;2023-07-22T04:37:05;97818.00;;;18.20
19040;BMP180;9652;49.014;12.052;2023-07-22T04:39:33;97816.00;;;18.20
19040;BMP180;9652;49.014;12.052;2023-07-22T04:42:00;97822.00;;;18.20
19040;BMP180;9652;49.014;12.052;2023-07-22T04:44:27;97811.00;;;18.30
19040;BMP180;9652;49.014;12.052;2023-07-22T04:46:54;97817.00;;;18.30
19040;BMP180;9652;49.014;12.052;2023-07-22T04:49:21;97814.00;;;18.30
19040;BMP180;9652;49.014;12.052;2023-07-22T04:51:50;97822.00;;;18.40
19040;BMP180;9652;49.014;12.052;2023-07-22T04:54:17;97809.00;;;18.40
19040;BMP180;9652;49.014;12.052;2023-07-22T04:56:45;97810.00;;;18.50
19040;BMP180;9652;49.014;12.052;2023-07-22T04:59:12;97837.00;;;18.50
19040;BMP180;9652;49.014;12.052;2023-07-22T05:01:40;97786.00;;;18.60
19040;BMP180;9652;49.014;12.052;2023-07-22T05:04:07;97829.00;;;18.60
19040;BMP180;9652;49.014;12.052;2023-07-22T05:06:34;97831.00;;;18.60
19040;BMP180;9652;49.014;12.052;2023-07-22T05:09:03;97828.00;;;18.70
19040;BMP180;9652;49.014;12.052;2023-07-22T05:11:30;97825.00;;;18.70
19040;BMP180;9652;49.014;12.052;2023-07-22T05:13:58;97796.00;;;18.80
19040;BMP180;9652;49.014;12.052;2023-07-22T05:16:25;97828.00;;;18.90
19040;BMP180;9652;49.014;12.052;2023-07-22T05:18:52;97827.00;;;18.90
19040;BMP180;9652;49.014;12.052;2023-07-22T05:21:19;97804.00;;;19.00
19040;BMP180;9652;49.014;12.052;2023-07-22T05:23:46;97822.00;;;19.00
19040;BMP180;9652;49.014;12.052;2023-07-22T05:26:14;97835.00;;;19.10
19040;BMP180;9652;49.014;12.052;2023-07-22T05:28:41;97834.00;;;19.10
19040;BMP180;9652;49.014;12.052;2023-07-22T05:31:08;97826.00;;;19.20
19040;BMP180;9652;49.014;12.052;2023-07-22T05:33:36;97828.00;;;19.30
19040;BMP180;9652;49.014;12.052;2023-07-22T05:36:03;97802.00;;;19.30
19040;BMP180;9652;49.014;12.052;2023-07-22T05:38:30;97825.00;;;19.40
19040;BMP180;9652;49.014;12.052;2023-07-22T05:40:58;97830.00;;;19.40
19040;BMP180;9652;49.014;12.052;2023-07-22T05:43:26;97836.00;;;19.50
19040;BMP180;9652;49.014;12.052;2023-07-22T05:45:53;97827.00;;;19.50
19040;BMP180;9652;49.014;12.052;2023-07-22T05:48:21;97826.00;;;19.60
19040;BMP180;9652;49.014;12.052;2023-07-22T05:50:48;97821.00;;;19.70
19040;BMP180;9652;49.014;12.052;2023-07-22T05:53:15;97816.00;;;19.70
19040;BMP180;9652;49.014;12.052;2023-07-22T05:55:42;97836.00;;;19.80
19040;BMP180;9652;49.014;12.052;2023-07-22T05:58:16;97836.00;;;19.80
19040;BMP180;9652;49.014;12.052;2023-07-22T06:00:46;97829.00;;;19.90
19040;BMP180;9652;49.014;12.052;2023-07-22T06:03:15;97780.00;;;20.00
19040;BMP180;9652;49.014;12.052;2023-07-22T06:05:42;97836.00;;;20.10
19040;BMP180;9652;49.014;12.052;2023-07-22T06:08:09;97858.00;;;20.10
19040;BMP180;9652;49.014;12.052;2023-07-22T06:10:36;97846.00;;;20.10
19040;BMP180;9652;49.014;12.052;2023-07-22T06:13:04;97849.00;;;20.20
19040;BMP180;9652;49.014;12.052;2023-07-22T06:15:31;97841.00;;;20.30
19040;BMP180;9652;49.014;12.052;2023-07-22T06:18:00;97856.00;;;20.30
19040;BMP180;9652;49.014;12.052;2023-07-22T06:20:27;97857.00;;;20.40
19040;BMP180;9652;49.014;12.052;2023-07-22T06:22:55;97859.00;;;20.50
19040;BMP180;9652;49.014;12.052;2023-07-22T06:25:22;97844.00;;;20.60
19040;BMP180;9652;49.014;12.052;2023-07-22T06:27:49;97865.00;;;20.70
19040;BMP180;9652;49.014;12.052;2023-07-22T06:30:17;97873.00;;;20.70
19040;BMP180;9652;49.014;12.052;2023-07-22T06:32:45;97864.00;;;20.80
19040;BMP180;9652;49.014;12.052;2023-07-22T06:35:13;97861.00;;;20.90
19040;BMP180;9652;49.014;12.052;2023-07-22T06:37:40;97846.00;;;21.00
19040;BMP180;9652;49.014;12.052;2023-07-22T06:40:08;97869.00;;;21.10
19040;BMP180;9652;49.014;12.052;2023-07-22T06:42:35;97862.00;;;21.20
19040;BMP180;9652;49.014;12.052;2023-07-22T06:45:04;97859.00;;;21.20
19040;BMP180;9652;49.014;12.052;2023-07-22T06:47:31;97865.00;;;21.30
19040;BMP180;9652;49.014;12.052;2023-07-22T06:49:58;97861.00;;;21.40
19040;BMP180;9652;49.014;12.052;2023-07-22T06:52:26;97872.00;;;21.50
19040;BMP180;9652;49.014;12.052;2023-07-22T06:54:54;97876.00;;;21.60
19040;BMP180;9652;49.014;12.052;2023-07-22T06:57:21;97861.00;;;21.60
19040;BMP180;9652;49.014;12.052;2023-07-22T06:59:48;97867.00;;;21.70
19040;BMP180;9652;49.014;12.052;2023-07-22T07:02:16;97873.00;;;21.80
19040;BMP180;9652;49.014;12.052;2023-07-22T07:04:43;97865.00;;;21.80
19040;BMP180;9652;49.014;12.052;2023-07-22T07:07:11;97872.00;;;21.90
19040;BMP180;9652;49.014;12.052;2023-07-22T07:09:39;97869.00;;;21.90
19040;BMP180;9652;49.014;12.052;2023-07-22T07:12:08;97874.00;;;22.00
19040;BMP180;9652;49.014;12.052;2023-07-22T07:14:35;97851.00;;;22.10
19040;BMP180;9652;49.014;12.052;2023-07-22T07:17:03;97868.00;;;22.10
19040;BMP180;9652;49.014;12.052;2023-07-22T07:19:30;97869.00;;;22.20
19040;BMP180;9652;49.014;12.052;2023-07-22T07:21:57;97868.00;;;22.20
19040;BMP180;9652;49.014;12.052;2023-07-22T07:24:24;97857.00;;;22.30
19040;BMP180;9652;49.014;12.052;2023-07-22T07:26:54;97875.00;;;22.40
19040;BMP180;9652;49.014;12.052;2023-07-22T07:29:21;97886.00;;;22.40
19040;BMP180;9652;49.014;12.052;2023-07-22T07:31:48;97885.00;;;22.50
19040;BMP180;9652;49.014;12.052;2023-07-22T07:34:15;97884.00;;;22.50
19040;BMP180;9652;49.014;12.052;2023-07-22T07:36:42;97882.00;;;22.60
19040;BMP180;9652;49.014;12.052;2023-07-22T07:39:09;97883.00;;;22.70
19040;BMP180;9652;49.014;12.052;2023-07-22T07:41:36;97876.00;;;22.70
19040;BMP180;9652;49.014;12.052;2023-07-22T07:44:06;97879.00;;;22.80
19040;BMP180;9652;49.014;12.052;2023-07-22T07:46:33;97875.00;;;22.90
19040;BMP180;9652;49.014;12.052;2023-07-22T07:49:01;97886.00;;;22.90
19040;BMP180;9652;49.014;12.052;2023-07-22T07:51:30;97892.00;;;23.00
19040;BMP180;9652;49.014;12.052;2023-07-22T07:53:59;97885.00;;;23.10
19040;BMP180;9652;49.014;12.052;2023-07-22T07:56:26;97872.00;;;23.10
19040;BMP180;9652;49.014;12.052;2023-07-22T07:58:54;97886.00;;;23.20
19040;BMP180;9652;49.014;12.052;2023-07-22T08:01:23;97883.00;;;23.30
19040;BMP180;9652;49.014;12.052;2023-07-22T08:03:50;97881.00;;;23.40
19040;BMP180;9652;49.014;12.052;2023-07-22T08:06:17;97878.00;;;23.50
19040;BMP180;9652;49.014;12.052;2023-07-22T08:08:44;97888.00;;;23.50
19040;BMP180;9652;49.014;12.052;2023-07-22T08:11:14;97888.00;;;23.60
19040;BMP180;9652;49.014;12.052;2023-07-22T08:13:43;97878.00;;;23.70
19040;BMP180;9652;49.014;12.052;2023-07-22T08:16:13;97882.00;;;23.80
19040;BMP180;9652;49.014;12.052;2023-07-22T08:18:41;97887.00;;;23.90
19040;BMP180;9652;49.014;12.052;2023-07-22T08:21:09;97885.00;;;24.00
19040;BMP180;9652;49.014;12.052;2023-07-22T08:23:37;97873.00;;;24.20
19040;BMP180;9652;49.014;12.052;2023-07-22T08:26:05;97865.00;;;24.30
19040;BMP180;9652;49.014;12.052;2023-07-22T08:28:32;97871.00;;;24.40
19040;BMP180;9652;49.014;12.052;2023-07-22T08:30:59;97885.00;;;24.60
19040;BMP180;9652;49.014;12.052;2023-07-22T08:33:27;97874.00;;;24.70
19040;BMP180;9652;49.014;12.052;2023-07-22T08:35:55;97877.00;;;24.90
19040;BMP180;9652;49.014;12.052;2023-07-22T08:38:23;97879.00;;;25.00
19040;BMP180;9652;49.014;12.052;2023-07-22T08:40:51;97871.00;;;25.20
19040;BMP180;9652;49.014;12.052;2023-07-22T08:43:21;97872.00;;;25.30
19040;BMP180;9652;49.014;12.052;2023-07-22T08:45:51;97881.00;;;25.50
19040;BMP180;9652;49.014;12.052;2023-07-22T08:48:21;97878.00;;;25.60
19040;BMP180;9652;49.014;12.052;2023-07-22T08:50:59;97873.00;;;25.70
19040;BMP180;9652;49.014;12.052;2023-07-22T08:53:30;97887.00;;;25.60
19040;BMP180;9652;49.014;12.052;2023-07-22T08:55:59;97871.00;;;25.80
19040;BMP180;9652;49.014;12.052;2023-07-22T08:58:26;97875.00;;;25.90
19040;BMP180;9652;49.014;12.052;2023-07-22T09:00:55;97853.00;;;25.90
19040;BMP180;9652;49.014;12.052;2023-07-22T09:03:24;97870.00;;;26.00
19040;BMP180;9652;49.014;12.052;2023-07-22T09:05:52;97869.00;;;26.00
19040;BMP180;9652;49.014;12.052;2023-07-22T09:08:21;97877.00;;;26.10
19040;BMP180;9652;49.014;12.052;2023-07-22T09:10:48;97871.00;;;26.10
19040;BMP180;9652;49.014;12.052;2023-07-22T09:13:18;97870.00;;;26.20
19040;BMP180;9652;49.014;12.052;2023-07-22T09:15:46;97866.00;;;26.30
19040;BMP180;9652;49.014;12.052;2023-07-22T09:18:14;97861.00;;;26.50
19040;BMP180;9652;49.014;12.052;2023-07-22T09:20:42;97865.00;;;26.60
19040;BMP180;9652;49.014;12.052;2023-07-22T09:23:09;97868.00;;;26.70
19040;BMP180;9652;49.014;12.052;2023-07-22T09:25:37;97873.00;;;26.80
19040;BMP180;9652;49.014;12.052;2023-07-22T09:28:04;97859.00;;;26.80
19040;BMP180;9652;49.014;12.052;2023-07-22T09:30:35;97864.00;;;26.80
19040;BMP180;9652;49.014;12.052;2023-07-22T09:33:05;97869.00;;;26.80
19040;BMP180;9652;49.014;12.052;2023-07-22T09:35:44;97878.00;;;26.70
19040;BMP180;9652;49.014;12.052;2023-07-22T09:38:12;97867.00;;;26.60
19040;BMP180;9652;49.014;12.052;2023-07-22T09:40:42;97870.00;;;26.50
19040;BMP180;9652;49.014;12.052;2023-07-22T09:43:11;97854.00;;;26.40
19040;BMP180;9652;49.014;12.052;2023-07-22T09:45:38;97869.00;;;26.30
19040;BMP180;9652;49.014;12.052;2023-07-22T09:48:08;97873.00;;;26.30
19040;BMP180;9652;49.014;12.052;2023-07-22T09:50:36;97862.00;;;26.30
19040;BMP180;9652;49.014;12.052;2023-07-22T09:53:04;97870.00;;;26.30
19040;BMP180;9652;49.014;12.052;2023-07-22T09:55:33;97871.00;;;26.40
19040;BMP180;9652;49.014;12.052;2023-07-22T09:58:03;97844.00;;;26.40
19040;BMP180;9652;49.014;12.052;2023-07-22T10:00:34;97867.00;;;26.60
19040;BMP180;9652;49.014;12.052;2023-07-22T10:03:09;97846.00;;;26.60
19040;BMP180;9652;49.014;12.052;2023-07-22T10:05:39;97858.00;;;26.70
19040;BMP180;9652;49.014;12.052;2023-07-22T10:08:06;97839.00;;;26.80
19040;BMP180;9652;49.014;12.052;2023-07-22T10:10:37;97853.00;;;26.80
19040;BMP180;9652;49.014;12.052;2023-07-22T10:13:06;97835.00;;;26.90
19040;BMP180;9652;49.014;12.052;2023-07-22T10:15:34;97854.00;;;26.90
19040;BMP180;9652;49.014;12.052;2023-07-22T10:18:03;97844.00;;;26.90
19040;BMP180;9652;49.014;12.052;2023-07-22T10:20:31;97852.00;;;27.00
19040;BMP180;9652;49.014;12.052;2023-07-22T10:23:01;97855.00;;;27.10
19040;BMP180;9652;49.014;12.052;2023-07-22T10:25:30;97852.00;;;27.20
19040;BMP180;9652;49.014;12.052;2023-07-22T10:27:57;97833.00;;;27.30
19040;BMP180;9652;49.014;12.052;2023-07-22T10:30:26;97852.00;;;27.30
19040;BMP180;9652;49.014;12.052;2023-07-22T10:32:54;97853.00;;;27.30
19040;BMP180;9652;49.014;12.052;2023-07-22T10:35:34;97854.00;;;27.40
19040;BMP180;9652;49.014;12.052;2023-07-22T10:38:09;97844.00;;;27.40
19040;BMP180;9652;49.014;12.052;2023-07-22T10:40:45;97844.00;;;27.40
19040;BMP180;9652;49.014;12.052;2023-07-22T10:43:15;97839.00;;;27.50
19040;BMP180;9652;49.014;12.052;2023-07-22T10:45:52;97850.00;;;27.60
19040;BMP180;9652;49.014;12.052;2023-07-22T10:48:22;97844.00;;;27.70
19040;BMP180;9652;49.014;12.052;2023-07-22T10:50:51;97843.00;;;27.70
19040;BMP180;9652;49.014;12.052;2023-07-22T10:53:29;97835.00;;;27.80
19040;BMP180;9652;49.014;12.052;2023-07-22T10:56:05;97842.00;;;27.80
19040;BMP180;9652;49.014;12.052;2023-07-22T10:58:36;97837.00;;;27.80
19040;BMP180;9652;49.014;12.052;2023-07-22T11:01:30;97833.00;;;27.90
19040;BMP180;9652;49.014;12.052;2023-07-22T11:04:23;97836.00;;;28.00
19040;BMP180;9652;49.014;12.052;2023-07-22T11:06:59;97831.00;;;28.10
19040;BMP180;9652;49.014;12.052;2023-07-22T11:09:38;97827.00;;;28.30
19040;BMP180;9652;49.014;12.052;2023-07-22T11:12:11;97815.00;;;28.40
19040;BMP180;9652;49.014;12.052;2023-07-22T11:14:45;97822.00;;;28.40
19040;BMP180;9652;49.014;12.052;2023-07-22T11:17:15;97824.00;;;28.50
19040;BMP180;9652;49.014;12.052;2023-07-22T11:19:43;97826.00;;;28.50
19040;BMP180;9652;49.014;12.052;2023-07-22T11:22:11;97817.00;;;28.60
19040;BMP180;9652;49.014;12.052;2023-07-22T11:24:39;97810.00;;;28.60
19040;BMP180;9652;49.014;12.052;2023-07-22T11:27:08;97815.00;;;28.60
19040;BMP180;9652;49.014;12.052;2023-07-22T11:29:35;97807.00;;;28.60
19040;BMP180;9652;49.014;12.052;2023-07-22T11:32:04;97814.00;;;28.70
19040;BMP180;9652;49.014;12.052;2023-07-22T11:34:33;97799.00;;;28.70
19040;BMP180;9652;49.014;12.052;2023-07-22T11:37:00;97805.00;;;28.80
19040;BMP180;9652;49.014;12.052;2023-07-22T11:39:27;97802.00;;;28.80
19040;BMP180;9652;49.014;12.052;2023-07-22T11:42:00;97801.00;;;28.80
19040;BMP180;9652;49.014;12.052;2023-07-22T11:44:29;97797.00;;;28.80
19040;BMP180;9652;49.014;12.052;2023-07-22T11:46:58;97798.00;;;28.80
19040;BMP180;9652;49.014;12.052;2023-07-22T11:49:28;97791.00;;;28.70
19040;BMP180;9652;49.014;12.052;2023-07-22T11:51:59;97790.00;;;28.70
19040;BMP180;9652;49.014;12.052;2023-07-22T11:54:27;97765.00;;;28.70
19040;BMP180;9652;49.014;12.052;2023-07-22T11:56:54;97790.00;;;28.70
19040;BMP180;9652;49.014;12.052;2023-07-22T11:59:36;97787.00;;;28.70
19040;BMP180;9652;49.014;12.052;2023-07-22T12:02:05;97776.00;;;28.80
19040;BMP180;9652;49.014;12.052;2023-07-22T12:04:33;97771.00;;;28.90
19040;BMP180;9652;49.014;12.052;2023-07-22T12:07:02;97776.00;;;29.00
19040;BMP180;9652;49.014;12.052;2023-07-22T12:09:31;97777.00;;;29.10
19040;BMP180;9652;49.014;12.052;2023-07-22T12:11:59;97776.00;;;29.20
19040;BMP180;9652;49.014;12.052;2023-07-22T12:14:34;97770.00;;;29.20
19040;BMP180;9652;49.014;12.052;2023-07-22T12:17:01;97747.00;;;29.50
19040;BMP180;9652;49.014;12.052;2023-07-22T12:19:29;97757.00;;;29.70
19040;BMP180;9652;49.014;12.052;2023-07-22T12:21:56;97751.00;;;29.80
19040;BMP180;9652;49.014;12.052;2023-07-22T12:24:25;97751.00;;;30.00
19040;BMP180;9652;49.014;12.052;2023-07-22T12:26:52;97749.00;;;30.10
19040;BMP180;9652;49.014;12.052;2023-07-22T12:29:19;97752.00;;;30.20
19040;BMP180;9652;49.014;12.052;2023-07-22T12:31:48;97755.00;;;30.30
19040;BMP180;9652;49.014;12.052;2023-07-22T12:34:15;97739.00;;;30.50
19040;BMP180;9652;49.014;12.052;2023-07-22T12:36:42;97732.00;;;30.60
19040;BMP180;9652;49.014;12.052;2023-07-22T12:39:09;97736.00;;;30.70
19040;BMP180;9652;49.014;12.052;2023-07-22T12:41:37;97733.00;;;30.80
19040;BMP180;9652;49.014;12.052;2023-07-22T12:44:05;97727.00;;;30.90
19040;BMP180;9652;49.014;12.052;2023-07-22T12:46:32;97741.00;;;30.90
19040;BMP180;9652;49.014;12.052;2023-07-22T12:48:59;97732.00;;;30.90
19040;BMP180;9652;49.014;12.052;2023-07-22T12:51:26;97731.00;;;30.90
19040;BMP180;9652;49.014;12.052;2023-07-22T12:53:53;97731.00;;;31.00
19040;BMP180;9652;49.014;12.052;2023-07-22T12:56:20;97705.00;;;31.00
19040;BMP180;9652;49.014;12.052;2023-07-22T12:58:48;97715.00;;;31.10
19040;BMP180;9652;49.014;12.052;2023-07-22T13:01:16;97720.00;;;31.10
19040;BMP180;9652;49.014;12.052;2023-07-22T13:03:43;97723.00;;;31.20
19040;BMP180;9652;49.014;12.052;2023-07-22T13:06:10;97716.00;;;31.30
19040;BMP180;9652;49.014;12.052;2023-07-22T13:08:37;97716.00;;;31.40
19040;BMP180;9652;49.014;12.052;2023-07-22T13:11:04;97714.00;;;31.60
19040;BMP180;9652;49.014;12.052;2023-07-22T13:13:31;97700.00;;;31.70
19040;BMP180;9652;49.014;12.052;2023-07-22T13:16:00;97710.00;;;31.80
19040;BMP180;9652;49.014;12.052;2023-07-22T13:18:27;97704.00;;;32.00
19040;BMP180;9652;49.014;12.052;2023-07-22T13:20:54;97712.00;;;32.20
19040;BMP180;9652;49.014;12.052;2023-07-22T13:23:21;97701.00;;;32.40
19040;BMP180;9652;49.014;12.052;2023-07-22T13:25:48;97703.00;;;32.60
19040;BMP180;9652;49.014;12.052;2023-07-22T13:28:15;97696.00;;;32.90
19040;BMP180;9652;49.014;12.052;2023-07-22T13:30:42;97700.00;;;33.10
19040;BMP180;9652;49.014;12.052;2023-07-22T13:33:10;97694.00;;;33.20
19040;BMP180;9652;49.014;12.052;2023-07-22T13:35:37;97689.00;;;33.40
19040;BMP180;9652;49.014;12.052;2023-07-22T13:38:04;97692.00;;;33.60
19040;BMP180;9652;49.014;12.052;2023-07-22T13:40:32;97694.00;;;33.90
19040;BMP180;9652;49.014;12.052;2023-07-22T13:42:59;97704.00;;;34.10
19040;BMP180;9652;49.014;12.052;2023-07-22T13:45:26;97692.00;;;34.20
19040;BMP180;9652;49.014;12.052;2023-07-22T13:47:53;97693.00;;;34.20
19040;BMP180;9652;49.014;12.052;2023-07-22T13:50:21;97699.00;;;34.40
19040;BMP180;9652;49.014;12.052;2023-07-22T13:52:49;97691.00;;;34.60
19040;BMP180;9652;49.014;12.052;2023-07-22T13:55:17;97710.00;;;34.70
19040;BMP180;9652;49.014;12.052;2023-07-22T13:57:44;97713.00;;;34.80
19040;BMP180;9652;49.014;12.052;2023-07-22T14:00:12;97696.00;;;34.80
19040;BMP180;9652;49.014;12.052;2023-07-22T14:02:40;97691.00;;;34.80
19040;BMP180;9652;49.014;12.052;2023-07-22T14:05:08;97704.00;;;34.80
19040;BMP180;9652;49.014;12.052;2023-07-22T14:07:38;97698.00;;;34.60
19040;BMP180;9652;49.014;12.052;2023-07-22T14:10:06;97693.00;;;34.50
19040;BMP180;9652;49.014;12.052;2023-07-22T14:12:34;97690.00;;;34.40
19040;BMP180;9652;49.014;12.052;2023-07-22T14:15:02;97683.00;;;34.20